createdAt,value
2018-11-11T00:00:11.028Z,12.66
2018-11-11T00:02:39.959Z,12.64
2018-11-11T00:05:09.574Z,12.62
2018-11-11T00:07:38.156Z,12.62
2018-11-11T00:10:06.803Z,12.59
2018-11-11T00:12:35.471Z,12.57
2018-11-11T00:15:04.023Z,12.57
2018-11-11T00:17:32.632Z,12.56
2018-11-11T00:20:01.307Z,12.57
2018-11-11T00:22:29.852Z,12.53
2018-11-11T00:24:58.382Z,12.51
2018-11-11T00:27:26.991Z,12.50
2018-11-11T00:29:55.563Z,12.49
2018-11-11T00:32:24.123Z,12.47
2018-11-11T00:34:53.725Z,12.48
2018-11-11T00:37:24.485Z,12.47
2018-11-11T00:39:54.457Z,12.47
2018-11-11T00:42:23.251Z,12.47
2018-11-11T00:44:52.085Z,12.49
2018-11-11T00:47:20.829Z,12.46
2018-11-11T00:49:52.222Z,12.44
2018-11-11T00:52:20.943Z,12.43
2018-11-11T00:54:49.685Z,12.42
2018-11-11T00:57:18.278Z,12.40
2018-11-11T00:59:46.819Z,12.38
2018-11-11T01:02:15.344Z,12.35
2018-11-11T01:04:43.912Z,12.37
2018-11-11T01:07:12.642Z,12.38
2018-11-11T01:09:42.090Z,12.39
2018-11-11T01:12:10.686Z,12.40
2018-11-11T01:14:39.304Z,12.39
2018-11-11T01:17:08.483Z,12.38
2018-11-11T01:19:37.059Z,12.35
2018-11-11T01:22:05.683Z,12.35
2018-11-11T01:24:34.199Z,12.37
2018-11-11T01:27:02.953Z,12.36
2018-11-11T01:29:31.596Z,12.37
2018-11-11T01:32:00.126Z,12.38
2018-11-11T01:34:28.758Z,12.35
2018-11-11T01:36:57.286Z,12.36
2018-11-11T01:39:25.856Z,12.38
2018-11-11T01:41:54.503Z,12.40
2018-11-11T01:44:23.658Z,12.38
2018-11-11T01:46:52.201Z,12.37
2018-11-11T01:49:21.047Z,12.38
2018-11-11T01:51:49.618Z,12.39
2018-11-11T01:54:18.198Z,12.39
2018-11-11T01:56:46.748Z,12.37
2018-11-11T01:59:15.480Z,12.38
2018-11-11T02:01:44.019Z,12.38
2018-11-11T02:04:12.553Z,12.36
2018-11-11T02:06:41.292Z,12.38
2018-11-11T02:09:11.132Z,12.39
2018-11-11T02:11:39.720Z,12.35
2018-11-11T02:14:08.360Z,12.35
2018-11-11T02:16:37.708Z,12.37
2018-11-11T02:19:06.719Z,12.34
2018-11-11T02:21:35.317Z,12.31
2018-11-11T02:24:03.950Z,12.26
2018-11-11T02:26:32.528Z,12.24
2018-11-11T02:29:01.235Z,12.20
2018-11-11T02:31:29.961Z,12.18
2018-11-11T02:33:58.478Z,12.16
2018-11-11T02:36:26.974Z,12.16
2018-11-11T02:38:55.522Z,12.18
2018-11-11T02:41:24.857Z,12.13
2018-11-11T02:43:53.456Z,12.11
2018-11-11T02:46:22.050Z,12.10
2018-11-11T02:48:50.598Z,12.08
2018-11-11T02:51:19.196Z,12.08
2018-11-11T02:53:47.723Z,12.08
2018-11-11T02:56:16.319Z,12.09
2018-11-11T02:58:44.937Z,12.10
2018-11-11T03:01:13.533Z,12.11
2018-11-11T03:03:42.081Z,12.13
2018-11-11T03:06:10.626Z,12.15
2018-11-11T03:08:39.338Z,12.17
2018-11-11T03:11:07.833Z,12.17
2018-11-11T03:13:36.818Z,12.18
2018-11-11T03:16:05.512Z,12.20
2018-11-11T03:18:34.069Z,12.21
2018-11-11T03:21:02.576Z,12.22
2018-11-11T03:23:31.154Z,12.21
2018-11-11T03:25:59.715Z,12.17
2018-11-11T03:28:28.390Z,12.15
2018-11-11T03:30:56.995Z,12.09
2018-11-11T03:33:25.796Z,12.05
2018-11-11T03:35:54.520Z,12.03
2018-11-11T03:38:23.132Z,12.00
2018-11-11T03:40:51.684Z,11.99
2018-11-11T03:43:20.299Z,11.96
2018-11-11T03:45:48.914Z,11.94
2018-11-11T03:48:17.505Z,11.92
2018-11-11T03:50:46.508Z,11.89
2018-11-11T03:53:15.076Z,11.89
2018-11-11T03:55:43.616Z,11.84
2018-11-11T03:58:12.128Z,11.79
2018-11-11T04:00:40.757Z,11.78
2018-11-11T04:03:09.472Z,11.77
2018-11-11T04:05:38.045Z,11.74
2018-11-11T04:08:06.603Z,11.72
2018-11-11T04:10:35.231Z,11.70
2018-11-11T04:13:03.718Z,11.70
2018-11-11T04:15:38.932Z,11.68
2018-11-11T04:18:07.513Z,11.64
2018-11-11T04:20:36.093Z,11.64
2018-11-11T04:23:05.235Z,11.60
2018-11-11T04:25:33.786Z,11.58
2018-11-11T04:28:02.316Z,11.58
2018-11-11T04:30:30.882Z,11.53
2018-11-11T04:32:59.613Z,11.50
2018-11-11T04:35:28.775Z,11.48
2018-11-11T04:37:57.294Z,11.44
2018-11-11T04:40:25.886Z,11.41
2018-11-11T04:42:54.434Z,11.39
2018-11-11T04:45:22.968Z,11.38
2018-11-11T04:47:51.521Z,11.37
2018-11-11T04:50:20.153Z,11.36
2018-11-11T04:52:48.682Z,11.41
2018-11-11T04:55:17.205Z,11.42
2018-11-11T04:57:45.804Z,11.43
2018-11-11T05:00:15.177Z,11.44
2018-11-11T05:02:43.947Z,11.44
2018-11-11T05:05:13.432Z,11.45
2018-11-11T05:07:42.465Z,11.43
2018-11-11T05:10:11.422Z,11.40
2018-11-11T05:12:40.122Z,11.40
2018-11-11T05:15:09.754Z,11.37
2018-11-11T05:17:38.338Z,11.36
2018-11-11T05:20:07.965Z,11.37
2018-11-11T05:22:36.631Z,11.33
2018-11-11T05:25:06.463Z,11.30
2018-11-11T05:27:35.626Z,11.28
2018-11-11T05:30:04.217Z,11.24
2018-11-11T05:32:32.730Z,11.25
2018-11-11T05:35:01.308Z,11.24
2018-11-11T05:37:30.696Z,11.27
2018-11-11T05:39:59.272Z,11.29
2018-11-11T05:42:27.838Z,11.30
2018-11-11T05:44:56.928Z,11.36
2018-11-11T05:47:25.542Z,11.38
2018-11-11T05:49:54.162Z,11.39
2018-11-11T05:52:22.887Z,11.42
2018-11-11T05:54:51.516Z,11.45
2018-11-11T05:57:20.081Z,11.47
2018-11-11T05:59:48.701Z,11.51
2018-11-11T06:02:17.310Z,11.55
2018-11-11T06:04:45.895Z,11.55
2018-11-11T06:07:14.449Z,11.59
2018-11-11T06:09:43.000Z,11.61
2018-11-11T06:12:12.260Z,11.62
2018-11-11T06:14:40.871Z,11.63
2018-11-11T06:17:09.439Z,11.65
2018-11-11T06:19:38.011Z,11.65
2018-11-11T06:22:06.585Z,11.65
2018-11-11T06:24:35.250Z,11.66
2018-11-11T06:27:03.910Z,11.66
2018-11-11T06:29:32.523Z,11.65
2018-11-11T06:32:01.068Z,11.64
2018-11-11T06:34:29.635Z,11.62
2018-11-11T06:36:58.350Z,11.62
2018-11-11T06:39:26.881Z,11.63
2018-11-11T06:41:55.446Z,11.64
2018-11-11T06:44:24.124Z,11.65
2018-11-11T06:46:52.657Z,11.65
2018-11-11T06:49:22.070Z,11.64
2018-11-11T06:51:50.640Z,11.64
2018-11-11T06:54:19.204Z,11.65
2018-11-11T06:56:47.740Z,11.66
2018-11-11T06:59:16.525Z,11.69
2018-11-11T07:01:45.119Z,11.70
2018-11-11T07:04:13.683Z,11.72
2018-11-11T07:06:42.265Z,11.72
2018-11-11T07:09:10.769Z,11.70
2018-11-11T07:11:39.438Z,11.68
2018-11-11T07:14:08.046Z,11.69
2018-11-11T07:16:36.563Z,11.70
2018-11-11T07:19:05.358Z,11.69
2018-11-11T07:21:33.928Z,11.72
2018-11-11T07:24:02.585Z,11.72
2018-11-11T07:26:31.101Z,11.72
2018-11-11T07:28:59.920Z,11.71
2018-11-11T07:31:28.523Z,11.71
2018-11-11T07:33:57.074Z,11.68
2018-11-11T07:36:26.195Z,11.66
2018-11-11T07:38:55.065Z,11.70
2018-11-11T07:41:23.630Z,11.69
2018-11-11T07:43:52.209Z,11.69
2018-11-11T07:46:21.179Z,11.67
2018-11-11T07:48:50.056Z,11.67
2018-11-11T07:51:18.754Z,11.66
2018-11-11T07:53:47.367Z,11.64
2018-11-11T07:56:15.946Z,11.66
2018-11-11T07:58:44.980Z,11.69
2018-11-11T08:01:13.534Z,11.67
2018-11-11T08:03:42.131Z,11.67
2018-11-11T08:06:10.725Z,11.70
2018-11-11T08:08:39.297Z,11.71
2018-11-11T08:11:19.496Z,11.70
2018-11-11T08:13:48.283Z,11.72
2018-11-11T08:16:17.192Z,11.70
2018-11-11T08:18:45.989Z,11.69
2018-11-11T08:21:14.701Z,11.69
2018-11-11T08:23:43.215Z,11.72
2018-11-11T08:26:11.812Z,11.71
2018-11-11T08:28:40.464Z,11.70
2018-11-11T08:31:09.038Z,11.73
2018-11-11T08:33:37.910Z,11.70
2018-11-11T08:36:06.496Z,11.73
2018-11-11T08:38:35.167Z,11.72
2018-11-11T08:41:03.740Z,11.73
2018-11-11T08:43:32.298Z,11.75
2018-11-11T08:46:00.863Z,11.73
2018-11-11T08:48:29.383Z,11.76
2018-11-11T08:50:57.906Z,11.77
2018-11-11T08:53:26.871Z,11.80
2018-11-11T08:55:55.428Z,11.82
2018-11-11T08:58:24.017Z,11.85
2018-11-11T09:00:52.815Z,11.87
2018-11-11T09:03:21.355Z,11.85
2018-11-11T09:05:49.948Z,11.88
2018-11-11T09:08:18.614Z,11.88
2018-11-11T09:10:47.187Z,11.87
2018-11-11T09:13:15.712Z,11.87
2018-11-11T09:15:44.325Z,11.91
2018-11-11T09:18:12.957Z,11.93
2018-11-11T09:20:41.516Z,11.94
2018-11-11T09:23:10.076Z,11.93
2018-11-11T09:25:38.777Z,11.91
2018-11-11T09:28:07.393Z,11.96
2018-11-11T09:30:35.950Z,11.98
2018-11-11T09:33:04.896Z,11.99
2018-11-11T09:35:33.421Z,12.01
2018-11-11T09:38:02.069Z,12.03
2018-11-11T09:40:30.695Z,12.02
2018-11-11T09:42:59.327Z,12.05
2018-11-11T09:45:27.938Z,12.07
2018-11-11T09:47:56.568Z,12.06
2018-11-11T09:50:25.056Z,12.10
2018-11-11T09:52:53.725Z,12.13
2018-11-11T09:55:22.212Z,12.21
2018-11-11T09:57:50.763Z,12.26
2018-11-11T10:00:20.876Z,12.31
2018-11-11T10:03:08.740Z,12.31
2018-11-11T10:05:48.312Z,12.35
2018-11-11T10:08:29.906Z,12.33
2018-11-11T10:11:03.671Z,12.34
2018-11-11T10:13:39.508Z,12.35
2018-11-11T10:16:13.133Z,12.38
2018-11-11T10:18:51.120Z,12.38
2018-11-11T10:21:30.208Z,12.37
2018-11-11T10:24:04.126Z,12.40
2018-11-11T10:26:50.853Z,12.43
2018-11-11T10:29:24.739Z,12.45
2018-11-11T10:31:58.224Z,12.52
2018-11-11T10:34:44.930Z,12.58
2018-11-11T10:37:18.243Z,12.66
2018-11-11T10:39:56.431Z,12.76
2018-11-11T10:42:41.342Z,12.88
2018-11-11T10:45:12.429Z,12.99
2018-11-11T10:47:45.443Z,13.07
2018-11-11T10:50:21.863Z,13.11
2018-11-11T10:52:50.392Z,13.13
2018-11-11T10:55:19.008Z,13.11
2018-11-11T10:57:47.640Z,13.10
2018-11-11T11:00:21.387Z,13.13
2018-11-11T11:02:54.919Z,13.11
2018-11-11T11:05:23.455Z,13.11
2018-11-11T11:07:52.452Z,13.16
2018-11-11T11:10:21.039Z,13.19
2018-11-11T11:12:49.537Z,13.23
2018-11-11T11:15:18.417Z,13.23
2018-11-11T11:17:46.999Z,13.26
2018-11-11T11:20:15.529Z,13.25
2018-11-11T11:22:44.285Z,13.29
2018-11-11T11:25:13.169Z,13.30
2018-11-11T11:27:42.075Z,13.33
2018-11-11T11:30:12.608Z,13.38
2018-11-11T11:32:41.435Z,13.43
2018-11-11T11:35:10.664Z,13.43
2018-11-11T11:37:39.844Z,13.45
2018-11-11T11:40:09.319Z,13.43
2018-11-11T11:42:38.381Z,13.44
2018-11-11T11:45:08.379Z,13.45
2018-11-11T11:47:37.056Z,13.47
2018-11-11T11:50:07.056Z,13.51
2018-11-11T11:52:35.576Z,13.54
2018-11-11T11:55:04.294Z,13.55
2018-11-11T11:57:32.945Z,13.53
2018-11-11T12:00:01.519Z,13.47
2018-11-11T12:02:30.183Z,13.45
2018-11-11T12:04:58.755Z,13.50
2018-11-11T12:07:27.420Z,13.49
2018-11-11T12:09:56.132Z,13.47
2018-11-11T12:12:24.721Z,13.46
2018-11-11T12:14:53.353Z,13.45
2018-11-11T12:17:21.929Z,13.44
2018-11-11T12:19:50.466Z,13.44
2018-11-11T12:22:19.236Z,13.43
2018-11-11T12:24:47.782Z,13.43
2018-11-11T12:27:16.356Z,13.41
2018-11-11T12:29:44.932Z,13.44
2018-11-11T12:32:13.704Z,13.46
2018-11-11T12:34:42.237Z,13.49
2018-11-11T12:37:11.135Z,13.48
2018-11-11T12:39:39.727Z,13.51
2018-11-11T12:42:08.278Z,13.53
2018-11-11T12:44:36.888Z,13.57
2018-11-11T12:47:05.804Z,13.56
2018-11-11T12:49:35.049Z,13.57
2018-11-11T12:52:03.633Z,13.61
2018-11-11T12:54:32.323Z,13.61
2018-11-11T12:57:01.011Z,13.62
2018-11-11T12:59:30.208Z,13.65
2018-11-11T13:01:58.789Z,13.65
2018-11-11T13:04:27.343Z,13.67
2018-11-11T13:06:55.948Z,13.69
2018-11-11T13:09:24.478Z,13.65
2018-11-11T13:11:53.100Z,13.67
2018-11-11T13:14:21.715Z,13.67
2018-11-11T13:16:50.328Z,13.65
2018-11-11T13:19:18.877Z,13.60
2018-11-11T13:21:47.512Z,13.58
2018-11-11T13:24:16.027Z,13.56
2018-11-11T13:26:44.555Z,13.55
2018-11-11T13:29:13.189Z,13.55
2018-11-11T13:31:42.005Z,13.58
2018-11-11T13:34:10.572Z,13.60
2018-11-11T13:36:39.215Z,13.66
2018-11-11T13:39:10.426Z,13.64
2018-11-11T13:41:39.045Z,13.62
2018-11-11T13:44:08.227Z,13.62
2018-11-11T13:46:37.152Z,13.60
2018-11-11T13:49:05.878Z,13.63
2018-11-11T13:51:34.529Z,13.65
2018-11-11T13:54:03.103Z,13.66
2018-11-11T13:56:31.663Z,13.69
2018-11-11T13:59:00.178Z,13.68
2018-11-11T14:01:28.894Z,13.73
2018-11-11T14:03:57.435Z,13.74
2018-11-11T14:06:25.965Z,13.71
2018-11-11T14:08:54.519Z,13.69
2018-11-11T14:11:23.060Z,13.65
2018-11-11T14:13:51.733Z,13.66
2018-11-11T14:16:20.535Z,13.63
2018-11-11T14:18:49.376Z,13.62
2018-11-11T14:21:17.818Z,13.61
2018-11-11T14:23:46.676Z,13.61
2018-11-11T14:26:15.226Z,13.62
2018-11-11T14:28:43.802Z,13.58
2018-11-11T14:31:12.323Z,13.56
2018-11-11T14:33:40.953Z,13.55
2018-11-11T14:36:09.558Z,13.53
2018-11-11T14:38:38.378Z,13.51
2018-11-11T14:41:07.026Z,13.52
2018-11-11T14:43:35.570Z,13.51
2018-11-11T14:46:04.158Z,13.48
2018-11-11T14:48:32.798Z,13.46
2018-11-11T14:51:01.407Z,13.44
2018-11-11T14:53:29.991Z,13.45
2018-11-11T14:55:58.494Z,13.42
2018-11-11T14:58:27.166Z,13.42
2018-11-11T15:00:55.632Z,13.44
2018-11-11T15:03:24.208Z,13.43
2018-11-11T15:05:52.740Z,13.49
2018-11-11T15:08:21.467Z,13.45
2018-11-11T15:10:50.015Z,13.40
2018-11-11T15:13:18.713Z,13.42
2018-11-11T15:15:48.178Z,13.38
2018-11-11T15:18:16.711Z,13.38
2018-11-11T15:20:45.589Z,13.34
2018-11-11T15:23:14.011Z,13.33
2018-11-11T15:25:42.535Z,13.26
2018-11-11T15:28:11.112Z,13.24
2018-11-11T15:30:40.046Z,13.22
2018-11-11T15:33:09.047Z,13.19
2018-11-11T15:35:37.633Z,13.20
2018-11-11T15:38:06.701Z,13.18
2018-11-11T15:40:36.454Z,13.17
2018-11-11T15:43:05.285Z,13.12
2018-11-11T15:45:34.799Z,13.06
2018-11-11T15:48:03.714Z,13.04
2018-11-11T15:50:33.348Z,13.04
2018-11-11T15:53:04.131Z,13.05
2018-11-11T15:55:34.240Z,13.04
2018-11-11T15:58:02.843Z,12.98
2018-11-11T16:00:32.790Z,12.95
2018-11-11T16:03:01.343Z,12.97
2018-11-11T16:05:29.978Z,12.94
2018-11-11T16:07:59.284Z,12.99
2018-11-11T16:10:29.163Z,12.95
2018-11-11T16:12:57.920Z,12.91
2018-11-11T16:15:29.218Z,12.93
2018-11-11T16:18:01.214Z,12.92
2018-11-11T16:20:30.562Z,12.91
2018-11-11T16:23:00.144Z,12.89
2018-11-11T16:25:28.732Z,12.88
2018-11-11T16:27:57.366Z,12.85
2018-11-11T16:30:27.532Z,12.80
2018-11-11T16:32:56.776Z,12.81
2018-11-11T16:35:26.340Z,12.77
2018-11-11T16:37:55.239Z,12.76
2018-11-11T16:40:32.462Z,12.78
2018-11-11T16:43:01.257Z,12.77
2018-11-11T16:45:30.742Z,12.76
2018-11-11T16:47:59.338Z,12.76
2018-11-11T16:50:29.687Z,12.74
2018-11-11T16:52:59.799Z,12.74
2018-11-11T16:55:29.554Z,12.74
2018-11-11T16:57:58.048Z,12.76
2018-11-11T17:00:27.860Z,12.77
2018-11-11T17:02:57.107Z,12.75
2018-11-11T17:05:33.329Z,12.63
2018-11-11T17:08:02.039Z,12.57
2018-11-11T17:10:32.094Z,12.53
2018-11-11T17:13:02.250Z,12.47
2018-11-11T17:15:31.843Z,12.47
2018-11-11T17:18:00.457Z,12.44
2018-11-11T17:20:29.443Z,12.34
2018-11-11T17:22:59.439Z,12.28
2018-11-11T17:25:28.534Z,12.23
2018-11-11T17:27:57.165Z,12.18
2018-11-11T17:30:28.067Z,12.17
2018-11-11T17:32:57.149Z,12.15
2018-11-11T17:35:25.673Z,12.15
2018-11-11T17:37:54.392Z,12.15
2018-11-11T17:40:25.340Z,12.11
2018-11-11T17:42:54.541Z,12.12
2018-11-11T17:45:23.247Z,12.08
2018-11-11T17:47:52.526Z,12.08
2018-11-11T17:50:23.859Z,12.06
2018-11-11T17:52:52.496Z,12.01
2018-11-11T17:55:22.475Z,11.95
2018-11-11T17:57:50.970Z,11.90
2018-11-11T18:00:20.775Z,11.92
2018-11-11T18:02:49.573Z,11.89
2018-11-11T18:05:19.406Z,11.87
2018-11-11T18:07:47.982Z,11.85
2018-11-11T18:10:21.422Z,11.83
2018-11-11T18:12:49.918Z,11.83
2018-11-11T18:15:20.058Z,11.81
2018-11-11T18:17:49.621Z,11.79
2018-11-11T18:20:19.766Z,11.81
2018-11-11T18:22:48.843Z,11.80
2018-11-11T18:25:17.508Z,11.81
2018-11-11T18:27:46.188Z,11.82
2018-11-11T18:30:18.447Z,11.82
2018-11-11T18:32:47.363Z,11.81
2018-11-11T18:35:16.608Z,11.77
2018-11-11T18:37:45.220Z,11.74
2018-11-11T18:40:15.394Z,11.72
2018-11-11T18:42:44.244Z,11.74
2018-11-11T18:45:15.609Z,11.75
2018-11-11T18:47:44.583Z,11.75
2018-11-11T18:50:15.833Z,11.78
2018-11-11T18:52:44.947Z,11.77
2018-11-11T18:55:13.532Z,11.77
2018-11-11T18:57:42.787Z,11.79
2018-11-11T19:00:14.807Z,11.78
2018-11-11T19:02:44.554Z,11.78
2018-11-11T19:05:14.498Z,11.77
2018-11-11T19:07:44.373Z,11.74
2018-11-11T19:10:15.124Z,11.76
2018-11-11T19:12:45.112Z,11.75
2018-11-11T19:15:15.126Z,11.74
2018-11-11T19:17:44.805Z,11.73
2018-11-11T19:20:15.840Z,11.70
2018-11-11T19:22:44.507Z,11.70
2018-11-11T19:25:15.305Z,11.70
2018-11-11T19:27:45.125Z,11.67
2018-11-11T19:30:14.969Z,11.66
2018-11-11T19:32:44.497Z,11.65
2018-11-11T19:35:14.753Z,11.62
2018-11-11T19:37:44.506Z,11.63
2018-11-11T19:40:19.110Z,11.66
2018-11-11T19:42:48.270Z,11.62
2018-11-11T19:45:18.577Z,11.56
2018-11-11T19:47:47.882Z,11.52
2018-11-11T19:50:18.141Z,11.49
2018-11-11T19:52:48.392Z,11.44
2018-11-11T19:55:18.049Z,11.38
2018-11-11T19:57:46.840Z,11.37
2018-11-11T20:00:18.812Z,11.29
2018-11-11T20:02:48.839Z,11.26
2018-11-11T20:05:18.200Z,11.22
2018-11-11T20:07:48.372Z,11.20
2018-11-11T20:10:18.198Z,11.18
2018-11-11T20:12:47.212Z,11.16
2018-11-11T20:15:18.527Z,11.12
2018-11-11T20:17:48.386Z,11.09
2018-11-11T20:20:19.600Z,11.06
2018-11-11T20:22:48.605Z,11.03
2018-11-11T20:25:18.286Z,11.01
2018-11-11T20:27:47.425Z,10.97
2018-11-11T20:30:18.579Z,10.94
2018-11-11T20:32:47.354Z,10.90
2018-11-11T20:35:18.440Z,10.86
2018-11-11T20:37:47.374Z,10.85
2018-11-11T20:40:19.528Z,10.81
2018-11-11T20:42:49.126Z,10.77
2018-11-11T20:45:19.260Z,10.73
2018-11-11T20:47:48.651Z,10.66
2018-11-11T20:50:25.498Z,10.60
2018-11-11T20:52:56.584Z,10.54
2018-11-11T20:55:25.150Z,10.50
2018-11-11T20:57:53.667Z,10.46
2018-11-11T21:00:23.662Z,10.45
2018-11-11T21:02:52.242Z,10.42
2018-11-11T21:05:22.303Z,10.39
2018-11-11T21:07:50.857Z,10.35
2018-11-11T21:10:20.838Z,10.29
2018-11-11T21:12:49.511Z,10.26
2018-11-11T21:15:19.437Z,10.21
2018-11-11T21:17:48.801Z,10.15
2018-11-11T21:20:18.617Z,10.06
2018-11-11T21:22:47.141Z,10.01
2018-11-11T21:25:16.070Z,9.96
2018-11-11T21:27:45.655Z,9.96
2018-11-11T21:30:16.706Z,9.96
2018-11-11T21:32:45.207Z,9.97
2018-11-11T21:35:16.850Z,9.95
2018-11-11T21:37:45.660Z,9.95
2018-11-11T21:40:17.335Z,9.95
2018-11-11T21:42:46.889Z,9.93
2018-11-11T21:45:16.740Z,9.93
2018-11-11T21:47:45.583Z,9.89
2018-11-11T21:50:17.167Z,9.87
2018-11-11T21:52:50.817Z,9.86
2018-11-11T21:55:19.307Z,9.85
2018-11-11T21:57:47.887Z,9.84
2018-11-11T22:00:16.764Z,9.83
2018-11-11T22:02:45.347Z,9.83
2018-11-11T22:05:13.916Z,9.80
2018-11-11T22:07:42.476Z,9.77
2018-11-11T22:10:14.384Z,9.77
2018-11-11T22:12:43.067Z,9.75
2018-11-11T22:15:12.707Z,9.71
2018-11-11T22:17:41.745Z,9.69
2018-11-11T22:20:11.297Z,9.71
2018-11-11T22:22:40.126Z,9.69
2018-11-11T22:25:08.733Z,9.66
2018-11-11T22:27:37.480Z,9.64
2018-11-11T22:30:08.548Z,9.58
2018-11-11T22:32:37.321Z,9.51
2018-11-11T22:35:06.573Z,9.49
2018-11-11T22:37:35.136Z,9.46
2018-11-11T22:40:03.675Z,9.45
2018-11-11T22:42:32.530Z,9.44
2018-11-11T22:45:01.266Z,9.41
2018-11-11T22:47:29.877Z,9.39
2018-11-11T22:49:58.432Z,9.40
2018-11-11T22:52:27.060Z,9.39
2018-11-11T22:54:55.603Z,9.39
2018-11-11T22:57:24.153Z,9.40
2018-11-11T22:59:52.716Z,9.39
2018-11-11T23:02:21.343Z,9.37
2018-11-11T23:04:49.884Z,9.36
2018-11-11T23:07:18.484Z,9.35
2018-11-11T23:09:47.085Z,9.35
2018-11-11T23:12:15.747Z,9.35
2018-11-11T23:14:44.319Z,9.35
2018-11-11T23:17:12.809Z,9.35
2018-11-11T23:19:41.319Z,9.33
2018-11-11T23:22:09.899Z,9.31
2018-11-11T23:24:38.459Z,9.30
2018-11-11T23:27:06.969Z,9.26
2018-11-11T23:29:35.636Z,9.24
2018-11-11T23:32:04.279Z,9.23
2018-11-11T23:34:32.795Z,9.20
2018-11-11T23:37:01.558Z,9.18
2018-11-11T23:39:31.114Z,9.18
2018-11-11T23:41:59.636Z,9.16
2018-11-11T23:44:28.189Z,9.13
2018-11-11T23:46:56.719Z,9.12
2018-11-11T23:49:25.244Z,9.11
2018-11-11T23:51:53.909Z,9.09
2018-11-11T23:54:22.431Z,9.09
2018-11-11T23:56:51.088Z,9.07
2018-11-11T23:59:19.594Z,9.06
